createdAt,value
2023-04-13T00:00:21.584Z,7.50
2023-04-13T00:01:23.312Z,7.50
2023-04-13T00:02:25.437Z,7.40
2023-04-13T00:03:30.947Z,7.50
2023-04-13T00:04:32.875Z,7.50
2023-04-13T00:05:34.720Z,7.50
2023-04-13T00:06:38.985Z,7.50
2023-04-13T00:07:41.253Z,7.60
2023-04-13T00:08:43.750Z,7.50
2023-04-13T00:09:47.355Z,7.50
2023-04-13T00:10:51.137Z,7.60
2023-04-13T00:11:52.880Z,7.60
2023-04-13T00:12:58.221Z,7.70
2023-04-13T00:14:00.410Z,7.70
2023-04-13T00:15:02.960Z,7.70
2023-04-13T00:16:05.842Z,7.70
2023-04-13T00:17:07.424Z,7.70
2023-04-13T00:18:10.500Z,7.80
2023-04-13T00:19:12.791Z,7.80
2023-04-13T00:20:14.785Z,7.80
2023-04-13T00:21:17.108Z,7.80
2023-04-13T00:22:18.789Z,7.80
2023-04-13T00:23:20.377Z,7.80
2023-04-13T00:24:22.529Z,7.80
2023-04-13T00:25:24.043Z,7.90
2023-04-13T00:26:25.773Z,7.80
2023-04-13T00:27:30.260Z,7.80
2023-04-13T00:28:34.704Z,7.80
2023-04-13T00:29:36.818Z,7.70
2023-04-13T00:30:38.476Z,7.70
2023-04-13T00:31:40.445Z,7.70
2023-04-13T00:32:43.008Z,7.70
2023-04-13T00:33:44.711Z,7.70
2023-04-13T00:34:46.570Z,7.70
2023-04-13T00:35:48.002Z,7.60
2023-04-13T00:36:49.713Z,7.70
2023-04-13T00:37:53.674Z,7.60
2023-04-13T00:38:57.317Z,7.60
2023-04-13T00:39:59.568Z,7.60
2023-04-13T00:41:02.305Z,7.60
2023-04-13T00:42:05.600Z,7.60
2023-04-13T00:43:07.156Z,7.60
2023-04-13T00:44:11.782Z,7.60
2023-04-13T00:45:14.334Z,7.60
2023-04-13T00:46:16.300Z,7.60
2023-04-13T00:47:26.625Z,7.60
2023-04-13T00:48:28.617Z,7.60
2023-04-13T00:49:33.273Z,7.50
2023-04-13T00:50:34.761Z,7.50
2023-04-13T00:51:36.294Z,7.50
2023-04-13T00:52:38.331Z,7.50
2023-04-13T00:53:40.539Z,7.50
2023-04-13T00:54:43.261Z,7.40
2023-04-13T00:55:46.045Z,7.40
2023-04-13T00:56:48.508Z,7.40
2023-04-13T00:57:52.492Z,7.40
2023-04-13T00:58:57.772Z,7.40
2023-04-13T01:00:00.696Z,7.40
2023-04-13T01:01:03.563Z,7.50
2023-04-13T01:02:05.734Z,7.40
2023-04-13T01:03:07.875Z,7.50
2023-04-13T01:04:09.687Z,7.40
2023-04-13T01:05:16.616Z,7.40
2023-04-13T01:06:27.873Z,7.40
2023-04-13T01:07:38.605Z,7.30
2023-04-13T01:08:47.852Z,7.30
2023-04-13T01:10:06.761Z,7.30
2023-04-13T01:11:18.709Z,7.30
2023-04-13T01:12:55.114Z,7.30
2023-04-13T01:14:40.601Z,7.30
2023-04-13T01:16:05.508Z,7.20
2023-04-13T01:17:18.095Z,7.30
2023-04-13T01:18:21.007Z,7.30
2023-04-13T01:19:33.662Z,7.20
2023-04-13T01:20:41.242Z,7.30
2023-04-13T01:21:48.073Z,7.20
2023-04-13T01:22:55.895Z,7.20
2023-04-13T01:24:03.158Z,7.20
2023-04-13T01:25:42.286Z,7.30
2023-04-13T01:26:58.561Z,7.20
2023-04-13T01:27:59.920Z,7.30
2023-04-13T01:29:01.580Z,7.20
2023-04-13T01:30:04.109Z,7.20
2023-04-13T01:31:11.914Z,7.20
2023-04-13T01:32:16.519Z,7.30
2023-04-13T01:33:20.863Z,7.20
2023-04-13T01:34:23.961Z,7.20
2023-04-13T01:35:26.791Z,7.10
2023-04-13T01:36:30.416Z,7.20
2023-04-13T01:37:31.953Z,7.10
2023-04-13T01:38:33.421Z,7.10
2023-04-13T01:39:37.451Z,7.10
2023-04-13T01:40:53.531Z,7.20
2023-04-13T01:41:56.656Z,7.10
2023-04-13T01:42:58.214Z,7.10
2023-04-13T01:44:04.440Z,7.10
2023-04-13T01:45:13.166Z,7.10
2023-04-13T01:46:14.668Z,7.10
2023-04-13T01:47:26.847Z,7.10
2023-04-13T01:48:47.022Z,7.10
2023-04-13T01:50:38.807Z,7.10
2023-04-13T01:51:51.612Z,7.10
2023-04-13T01:53:00.935Z,7.00
2023-04-13T01:54:07.764Z,7.00
2023-04-13T01:55:12.393Z,7.00
2023-04-13T01:56:16.753Z,7.10
2023-04-13T01:57:18.608Z,7.00
2023-04-13T01:58:23.467Z,7.00
2023-04-13T01:59:32.112Z,7.00
2023-04-13T02:00:37.280Z,7.00
2023-04-13T02:01:44.135Z,6.90
2023-04-13T02:02:46.127Z,6.90
2023-04-13T02:03:48.924Z,6.90
2023-04-13T02:04:51.340Z,6.90
2023-04-13T02:05:52.991Z,6.90
2023-04-13T02:06:54.644Z,6.90
2023-04-13T02:08:03.752Z,6.90
2023-04-13T02:09:07.221Z,6.90
2023-04-13T02:10:09.410Z,6.90
2023-04-13T02:11:12.480Z,6.80
2023-04-13T02:12:13.995Z,6.80
2023-04-13T02:13:15.705Z,6.70
2023-04-13T02:14:17.864Z,6.70
2023-04-13T02:15:20.468Z,6.70
2023-04-13T02:16:22.267Z,6.70
2023-04-13T02:17:25.665Z,6.70
2023-04-13T02:18:27.904Z,6.70
2023-04-13T02:19:29.991Z,6.80
2023-04-13T02:20:40.387Z,6.70
2023-04-13T02:21:42.288Z,6.70
2023-04-13T02:22:44.257Z,6.70
2023-04-13T02:23:46.756Z,6.70
2023-04-13T02:24:50.274Z,6.70
2023-04-13T02:25:51.699Z,6.70
2023-04-13T02:26:53.098Z,6.80
2023-04-13T02:27:56.138Z,6.70
2023-04-13T02:28:58.044Z,6.70
2023-04-13T02:29:59.399Z,6.80
2023-04-13T02:31:02.884Z,6.70
2023-04-13T02:32:05.429Z,6.80
2023-04-13T02:33:09.496Z,6.80
2023-04-13T02:34:11.447Z,6.80
2023-04-13T02:35:13.502Z,6.80
2023-04-13T02:36:17.418Z,6.80
2023-04-13T02:37:32.508Z,6.80
2023-04-13T02:38:34.113Z,6.80
2023-04-13T02:39:42.544Z,6.80
2023-04-13T02:40:44.264Z,6.70
2023-04-13T02:41:46.410Z,6.80
2023-04-13T02:42:53.069Z,6.80
2023-04-13T02:43:54.899Z,6.80
2023-04-13T02:44:58.778Z,6.80
2023-04-13T02:46:00.546Z,6.80
2023-04-13T02:47:07.670Z,6.90
2023-04-13T02:48:12.020Z,6.90
2023-04-13T02:49:14.485Z,6.80
2023-04-13T02:50:26.114Z,6.90
2023-04-13T02:51:34.106Z,6.90
2023-04-13T02:52:37.156Z,6.90
2023-04-13T02:53:41.317Z,7.00
2023-04-13T02:54:43.626Z,6.90
2023-04-13T02:55:45.444Z,7.00
2023-04-13T02:56:49.689Z,7.00
2023-04-13T02:57:51.557Z,6.90
2023-04-13T02:58:53.595Z,7.00
2023-04-13T02:59:55.188Z,6.90
2023-04-13T03:00:59.640Z,6.90
2023-04-13T03:02:01.820Z,6.90
2023-04-13T03:03:06.930Z,7.00
2023-04-13T03:04:13.993Z,7.00
2023-04-13T03:05:15.501Z,7.00
2023-04-13T03:06:17.783Z,6.90
2023-04-13T03:07:22.591Z,7.00
2023-04-13T03:08:26.193Z,7.00
2023-04-13T03:09:45.613Z,7.00
2023-04-13T03:10:47.435Z,7.10
2023-04-13T03:11:49.410Z,7.10
2023-04-13T03:12:55.637Z,7.10
2023-04-13T03:13:58.560Z,7.20
2023-04-13T03:15:02.991Z,7.20
2023-04-13T03:16:05.861Z,7.20
2023-04-13T03:17:08.272Z,7.10
2023-04-13T03:18:14.021Z,7.20
2023-04-13T03:19:18.410Z,7.20
2023-04-13T03:20:23.744Z,7.20
2023-04-13T03:21:34.508Z,7.20
2023-04-13T03:22:46.687Z,7.20
2023-04-13T03:23:48.412Z,7.30
2023-04-13T03:24:52.582Z,7.30
2023-04-13T03:26:01.143Z,7.30
2023-04-13T03:27:02.841Z,7.30
2023-04-13T03:28:09.936Z,7.30
2023-04-13T03:29:16.271Z,7.30
2023-04-13T03:30:19.990Z,7.30
2023-04-13T03:31:28.333Z,7.30
2023-04-13T03:32:30.488Z,7.20
2023-04-13T03:33:34.739Z,7.20
2023-04-13T03:34:43.743Z,7.20
2023-04-13T03:35:47.174Z,7.20
2023-04-13T03:36:57.424Z,7.20
2023-04-13T03:38:00.421Z,7.20
2023-04-13T03:39:10.045Z,7.30
2023-04-13T03:40:13.667Z,7.20
2023-04-13T03:41:23.834Z,7.20
2023-04-13T03:42:25.731Z,7.20
2023-04-13T03:43:31.915Z,7.10
2023-04-13T03:44:46.071Z,7.10
2023-04-13T03:45:47.457Z,7.20
2023-04-13T03:46:51.540Z,7.20
2023-04-13T03:48:07.437Z,7.20
2023-04-13T03:49:11.068Z,7.20
2023-04-13T03:50:13.633Z,7.20
2023-04-13T03:51:16.255Z,7.20
2023-04-13T03:52:27.738Z,7.30
2023-04-13T03:53:38.339Z,7.30
2023-04-13T03:54:40.472Z,7.30
2023-04-13T03:55:42.536Z,7.30
2023-04-13T03:56:45.397Z,7.30
2023-04-13T03:57:47.808Z,7.30
2023-04-13T03:58:54.906Z,7.30
2023-04-13T04:00:00.043Z,7.30
2023-04-13T04:01:23.738Z,7.30
2023-04-13T04:02:26.254Z,7.30
2023-04-13T04:03:28.180Z,7.30
2023-04-13T04:04:32.951Z,7.30
2023-04-13T04:05:34.400Z,7.30
2023-04-13T04:06:38.784Z,7.30
2023-04-13T04:07:48.556Z,7.30
2023-04-13T04:08:51.400Z,7.30
2023-04-13T04:10:13.075Z,7.20
2023-04-13T04:11:14.811Z,7.20
2023-04-13T04:12:17.491Z,7.20
2023-04-13T04:13:18.984Z,7.20
2023-04-13T04:14:25.195Z,7.30
2023-04-13T04:15:33.232Z,7.30
2023-04-13T04:16:38.697Z,7.30
2023-04-13T04:17:45.085Z,7.30
2023-04-13T04:18:46.495Z,7.20
2023-04-13T04:19:50.816Z,7.30
2023-04-13T04:20:56.211Z,7.30
2023-04-13T04:22:07.087Z,7.30
2023-04-13T04:23:15.121Z,7.30
2023-04-13T04:24:23.733Z,7.30
2023-04-13T04:25:30.120Z,7.30
2023-04-13T04:26:32.300Z,7.30
2023-04-13T04:27:39.048Z,7.20
2023-04-13T04:28:42.455Z,7.20
2023-04-13T04:29:52.098Z,7.20
2023-04-13T04:31:01.378Z,7.20
2023-04-13T04:32:05.543Z,7.20
2023-04-13T04:33:07.567Z,7.20
2023-04-13T04:34:11.962Z,7.20
2023-04-13T04:35:19.466Z,7.10
2023-04-13T04:36:26.589Z,7.10
2023-04-13T04:37:37.414Z,7.10
2023-04-13T04:38:43.131Z,7.10
2023-04-13T04:39:45.933Z,7.00
2023-04-13T04:40:51.014Z,7.00
2023-04-13T04:41:54.343Z,7.00
2023-04-13T04:42:58.209Z,7.00
2023-04-13T04:44:08.842Z,6.90
2023-04-13T04:45:17.942Z,6.90
2023-04-13T04:46:26.051Z,6.90
2023-04-13T04:47:32.785Z,6.90
2023-04-13T04:49:00.788Z,6.90
2023-04-13T04:50:03.943Z,6.90
2023-04-13T04:51:11.704Z,6.90
2023-04-13T04:52:14.860Z,6.90
2023-04-13T04:53:17.105Z,6.90
2023-04-13T04:54:20.185Z,6.80
2023-04-13T04:55:22.791Z,6.80
2023-04-13T04:56:24.471Z,6.80
2023-04-13T04:57:29.635Z,6.80
2023-04-13T04:58:31.369Z,6.90
2023-04-13T04:59:33.450Z,6.90
2023-04-13T05:00:38.139Z,6.80
2023-04-13T05:01:44.010Z,6.90
2023-04-13T05:02:50.200Z,6.90
2023-04-13T05:03:52.545Z,6.90
2023-04-13T05:05:03.697Z,6.90
2023-04-13T05:06:05.468Z,7.00
2023-04-13T05:07:07.800Z,6.90
2023-04-13T05:08:13.441Z,6.90
2023-04-13T05:09:20.608Z,6.90
2023-04-13T05:10:28.227Z,6.90
2023-04-13T05:11:32.271Z,6.90
2023-04-13T05:12:37.457Z,6.90
2023-04-13T05:13:40.263Z,6.90
2023-04-13T05:14:51.503Z,7.00
2023-04-13T05:15:53.632Z,7.00
2023-04-13T05:16:55.665Z,7.00
2023-04-13T05:18:00.519Z,7.00
2023-04-13T05:19:05.900Z,7.00
2023-04-13T05:20:20.575Z,7.00
2023-04-13T05:21:28.447Z,7.00
2023-04-13T05:22:33.460Z,7.10
2023-04-13T05:23:38.943Z,7.10
2023-04-13T05:24:42.878Z,7.10
2023-04-13T05:25:46.860Z,7.10
2023-04-13T05:26:56.950Z,7.10
2023-04-13T05:27:58.553Z,7.10
2023-04-13T05:29:03.270Z,7.20
2023-04-13T05:30:09.637Z,7.20
2023-04-13T05:31:13.661Z,7.20
2023-04-13T05:32:18.636Z,7.30
2023-04-13T05:33:22.119Z,7.30
2023-04-13T05:34:29.023Z,7.30
2023-04-13T05:35:40.322Z,7.40
2023-04-13T05:36:42.791Z,7.40
2023-04-13T05:37:47.725Z,7.40
2023-04-13T05:38:56.843Z,7.40
2023-04-13T05:40:00.136Z,7.30
2023-04-13T05:41:07.615Z,7.40
2023-04-13T05:42:09.588Z,7.40
2023-04-13T05:43:17.192Z,7.40
2023-04-13T05:44:23.755Z,7.40
2023-04-13T05:45:27.358Z,7.40
2023-04-13T05:46:41.633Z,7.40
2023-04-13T05:47:45.248Z,7.40
2023-04-13T05:48:49.093Z,7.40
2023-04-13T05:49:52.216Z,7.50
2023-04-13T05:50:59.752Z,7.50
2023-04-13T05:52:08.029Z,7.50
2023-04-13T05:53:18.948Z,7.50
2023-04-13T05:54:24.713Z,7.60
2023-04-13T05:55:27.570Z,7.60
2023-04-13T05:56:34.511Z,7.70
2023-04-13T05:57:36.174Z,7.70
2023-04-13T05:58:41.943Z,7.60
2023-04-13T05:59:53.301Z,7.70
2023-04-13T06:00:58.778Z,7.70
2023-04-13T06:02:06.390Z,7.70
2023-04-13T06:03:08.651Z,7.70
2023-04-13T06:04:11.790Z,7.80
2023-04-13T06:05:14.602Z,7.80
2023-04-13T06:06:18.771Z,7.90
2023-04-13T06:07:22.265Z,7.90
2023-04-13T06:08:23.672Z,7.90
2023-04-13T06:09:25.812Z,8.00
2023-04-13T06:10:28.109Z,8.00
2023-04-13T06:11:29.500Z,8.10
2023-04-13T06:12:34.817Z,8.10
2023-04-13T06:13:36.620Z,8.10
2023-04-13T06:14:38.494Z,8.10
2023-04-13T06:15:40.330Z,8.10
2023-04-13T06:16:41.841Z,8.10
2023-04-13T06:17:43.293Z,8.00
2023-04-13T06:18:44.935Z,8.00
2023-04-13T06:19:46.574Z,8.00
2023-04-13T06:20:48.740Z,8.10
2023-04-13T06:21:50.531Z,8.10
2023-04-13T06:22:52.295Z,8.00
2023-04-13T06:23:56.074Z,8.10
2023-04-13T06:25:06.315Z,8.10
2023-04-13T06:26:10.095Z,8.10
2023-04-13T06:27:23.322Z,8.10
2023-04-13T06:28:29.387Z,8.20
2023-04-13T06:29:32.276Z,8.20
2023-04-13T06:30:39.847Z,8.20
2023-04-13T06:31:45.071Z,8.20
2023-04-13T06:32:51.885Z,8.20
2023-04-13T06:33:56.966Z,8.30
2023-04-13T06:35:03.425Z,8.40
2023-04-13T06:36:10.429Z,8.50
2023-04-13T06:37:12.398Z,8.50
2023-04-13T06:38:21.208Z,8.60
2023-04-13T06:39:37.533Z,8.60
2023-04-13T06:40:39.713Z,8.70
2023-04-13T06:41:43.269Z,8.80
2023-04-13T06:42:55.117Z,8.90
2023-04-13T06:44:18.181Z,8.90
2023-04-13T06:45:25.956Z,8.90
2023-04-13T06:46:28.754Z,9.00
2023-04-13T06:47:37.184Z,9.00
2023-04-13T06:48:39.307Z,9.00
2023-04-13T06:49:41.866Z,9.00
2023-04-13T06:50:44.772Z,9.00
2023-04-13T06:51:46.848Z,9.00
2023-04-13T06:52:48.785Z,9.10
2023-04-13T06:53:51.433Z,9.10
2023-04-13T06:54:53.320Z,9.10
2023-04-13T06:56:04.543Z,9.10
2023-04-13T06:57:06.606Z,9.10
2023-04-13T06:58:08.062Z,9.10
2023-04-13T06:59:09.955Z,9.10
2023-04-13T07:00:28.151Z,9.00
2023-04-13T07:01:31.907Z,8.90
2023-04-13T07:02:34.049Z,8.90
2023-04-13T07:03:36.771Z,8.80
2023-04-13T07:04:39.648Z,8.80
2023-04-13T07:05:41.272Z,8.80
2023-04-13T07:06:46.969Z,8.60
2023-04-13T07:07:48.608Z,8.50
2023-04-13T07:08:50.992Z,8.50
2023-04-13T07:09:52.689Z,8.50
2023-04-13T07:10:58.288Z,8.50
2023-04-13T07:12:09.524Z,8.50
2023-04-13T07:13:12.184Z,8.50
2023-04-13T07:14:13.970Z,8.60
2023-04-13T07:15:15.965Z,8.60
2023-04-13T07:16:17.405Z,8.50
2023-04-13T07:17:20.751Z,8.50
2023-04-13T07:18:22.361Z,8.50
2023-04-13T07:19:25.901Z,8.50
2023-04-13T07:20:27.260Z,8.50
2023-04-13T07:21:28.867Z,8.50
2023-04-13T07:22:35.425Z,8.50
2023-04-13T07:23:38.233Z,8.50
2023-04-13T07:24:40.127Z,8.50
2023-04-13T07:25:45.246Z,8.60
2023-04-13T07:26:54.916Z,8.70
2023-04-13T07:27:57.643Z,8.70
2023-04-13T07:28:59.344Z,8.70
2023-04-13T07:30:05.107Z,8.80
2023-04-13T07:31:13.527Z,8.80
2023-04-13T07:32:21.072Z,8.90
2023-04-13T07:33:22.778Z,8.90
2023-04-13T07:34:26.411Z,8.90
2023-04-13T07:35:28.790Z,8.90
2023-04-13T07:36:31.580Z,8.90
2023-04-13T07:37:38.745Z,8.90
2023-04-13T07:38:40.567Z,8.90
2023-04-13T07:39:43.277Z,9.00
2023-04-13T07:40:45.830Z,9.00
2023-04-13T07:41:47.949Z,9.00
2023-04-13T07:42:54.603Z,9.10
2023-04-13T07:43:56.634Z,9.10
2023-04-13T07:44:58.906Z,9.20
2023-04-13T07:46:09.238Z,9.20
2023-04-13T07:47:13.225Z,9.30
2023-04-13T07:48:16.633Z,9.40
2023-04-13T07:49:18.593Z,9.50
2023-04-13T07:50:20.765Z,9.50
2023-04-13T07:51:22.972Z,9.60
2023-04-13T07:52:24.505Z,9.60
2023-04-13T07:53:27.992Z,9.70
2023-04-13T07:54:29.806Z,9.70
2023-04-13T07:55:31.397Z,9.70
2023-04-13T07:56:32.874Z,9.80
2023-04-13T07:57:36.297Z,9.80
2023-04-13T07:58:39.428Z,9.80
2023-04-13T07:59:41.565Z,9.70
2023-04-13T08:00:43.044Z,9.70
2023-04-13T08:01:44.509Z,9.70
2023-04-13T08:02:46.922Z,9.80
2023-04-13T08:03:53.617Z,9.70
2023-04-13T08:04:58.772Z,9.70
2023-04-13T08:06:11.271Z,9.80
2023-04-13T08:07:12.732Z,9.80
2023-04-13T08:08:14.474Z,9.80
2023-04-13T08:09:16.433Z,9.80
2023-04-13T08:10:18.460Z,9.80
2023-04-13T08:11:20.416Z,9.80
2023-04-13T08:12:26.252Z,9.80
2023-04-13T08:13:31.465Z,9.90
2023-04-13T08:14:33.035Z,9.90
2023-04-13T08:15:34.542Z,9.90
2023-04-13T08:16:36.663Z,9.90
2023-04-13T08:17:41.933Z,9.90
2023-04-13T08:18:43.425Z,9.90
2023-04-13T08:19:46.729Z,10.00
2023-04-13T08:20:49.365Z,10.00
2023-04-13T08:21:52.940Z,9.90
2023-04-13T08:22:54.587Z,9.90
2023-04-13T08:23:57.255Z,9.90
2023-04-13T08:24:59.062Z,9.80
2023-04-13T08:26:03.815Z,10.00
2023-04-13T08:27:07.548Z,10.00
2023-04-13T08:28:09.665Z,10.10
2023-04-13T08:29:11.325Z,10.20
2023-04-13T08:30:14.414Z,10.10
2023-04-13T08:31:26.098Z,10.10
2023-04-13T08:32:31.628Z,9.90
2023-04-13T08:33:33.007Z,9.90
2023-04-13T08:34:34.907Z,9.90
2023-04-13T08:35:39.185Z,10.00
2023-04-13T08:36:42.863Z,10.10
2023-04-13T08:37:45.494Z,10.20
2023-04-13T08:38:47.699Z,10.00
2023-04-13T08:39:49.259Z,9.90
2023-04-13T08:40:53.387Z,10.00
2023-04-13T08:42:01.861Z,10.10
2023-04-13T08:43:07.823Z,10.30
2023-04-13T08:44:09.297Z,10.40
2023-04-13T08:45:15.644Z,10.50
2023-04-13T08:46:22.050Z,10.60
2023-04-13T08:47:28.276Z,10.70
2023-04-13T08:48:38.982Z,10.80
2023-04-13T08:49:50.235Z,10.90
2023-04-13T08:50:58.520Z,11.00
2023-04-13T08:52:05.366Z,11.00
2023-04-13T08:53:07.244Z,11.10
2023-04-13T08:54:09.301Z,11.10
2023-04-13T08:55:13.055Z,10.90
2023-04-13T08:56:15.503Z,10.90
2023-04-13T08:57:17.917Z,10.90
2023-04-13T08:58:24.412Z,10.90
2023-04-13T08:59:29.247Z,10.80
2023-04-13T09:00:31.141Z,10.60
2023-04-13T09:01:34.248Z,10.60
2023-04-13T09:02:39.389Z,10.60
2023-04-13T09:04:11.309Z,10.60
2023-04-13T09:05:16.708Z,10.60
2023-04-13T09:06:33.565Z,10.70
2023-04-13T09:07:37.013Z,10.70
2023-04-13T09:08:46.324Z,10.70
2023-04-13T09:09:51.404Z,10.80
2023-04-13T09:10:56.897Z,10.90
2023-04-13T09:11:59.200Z,11.00
2023-04-13T09:13:01.699Z,11.00
2023-04-13T09:14:04.959Z,11.10
2023-04-13T09:15:07.604Z,11.10
2023-04-13T09:16:20.267Z,11.10
2023-04-13T09:17:30.751Z,11.00
2023-04-13T09:18:33.596Z,10.70
2023-04-13T09:19:43.535Z,10.80
2023-04-13T09:20:59.079Z,10.90
2023-04-13T09:22:11.953Z,11.00
2023-04-13T09:23:15.159Z,11.00
2023-04-13T09:24:16.972Z,11.20
2023-04-13T09:25:27.287Z,11.30
2023-04-13T09:26:38.892Z,11.40
2023-04-13T09:27:40.614Z,11.30
2023-04-13T09:28:54.297Z,10.80
2023-04-13T09:29:57.359Z,10.90
2023-04-13T09:31:03.755Z,10.90
2023-04-13T09:32:06.836Z,11.00
2023-04-13T09:33:10.518Z,11.00
2023-04-13T09:34:12.582Z,11.00
2023-04-13T09:35:14.180Z,11.00
2023-04-13T09:36:18.859Z,10.90
2023-04-13T09:37:21.521Z,10.90
2023-04-13T09:38:31.172Z,10.80
2023-04-13T09:39:33.037Z,10.60
2023-04-13T09:40:38.182Z,10.50
2023-04-13T09:41:40.617Z,10.60
2023-04-13T09:43:01.844Z,10.60
2023-04-13T09:44:24.471Z,10.50
2023-04-13T09:45:37.459Z,10.40
2023-04-13T09:46:39.304Z,10.40
2023-04-13T09:47:41.126Z,10.30
2023-04-13T09:48:42.656Z,10.30
2023-04-13T09:49:44.795Z,10.30
2023-04-13T09:50:46.605Z,10.30
2023-04-13T09:51:48.572Z,10.30
2023-04-13T09:53:00.655Z,10.10
2023-04-13T09:54:02.159Z,10.10
2023-04-13T09:55:03.759Z,10.20
2023-04-13T09:56:05.778Z,10.30
2023-04-13T09:57:07.178Z,10.30
2023-04-13T09:58:13.660Z,10.30
2023-04-13T09:59:18.004Z,10.40
2023-04-13T10:00:21.415Z,10.30
2023-04-13T10:01:24.309Z,10.30
2023-04-13T10:02:27.811Z,10.50
2023-04-13T10:03:34.007Z,10.60
2023-04-13T10:04:36.090Z,10.60
2023-04-13T10:05:51.010Z,10.60
2023-04-13T10:06:59.982Z,10.70
2023-04-13T10:08:01.898Z,10.70
2023-04-13T10:09:03.783Z,10.60
2023-04-13T10:10:06.630Z,10.70
2023-04-13T10:11:14.985Z,10.80
2023-04-13T10:12:17.439Z,10.80
2023-04-13T10:13:26.054Z,10.90
2023-04-13T10:14:34.552Z,10.90
2023-04-13T10:15:52.740Z,10.90
2023-04-13T10:17:13.086Z,11.00
2023-04-13T10:18:42.601Z,11.10
2023-04-13T10:19:47.723Z,11.00
2023-04-13T10:20:52.223Z,11.00
2023-04-13T10:21:55.758Z,11.10
2023-04-13T10:22:58.456Z,11.20
2023-04-13T10:24:00.005Z,11.30
2023-04-13T10:25:01.701Z,11.50
2023-04-13T10:26:04.782Z,11.60
2023-04-13T10:27:23.930Z,11.70
2023-04-13T10:28:27.323Z,11.90
2023-04-13T10:29:32.875Z,12.00
2023-04-13T10:30:34.500Z,12.10
2023-04-13T10:31:39.849Z,12.30
2023-04-13T10:32:42.830Z,12.50
2023-04-13T10:33:55.222Z,12.80
2023-04-13T10:34:56.988Z,13.00
2023-04-13T10:36:02.283Z,13.10
2023-04-13T10:37:04.386Z,13.20
2023-04-13T10:38:05.881Z,13.30
2023-04-13T10:39:08.302Z,13.40
2023-04-13T10:40:13.416Z,13.50
2023-04-13T10:41:26.314Z,13.60
2023-04-13T10:42:28.615Z,13.70
2023-04-13T10:43:31.919Z,13.70
2023-04-13T10:44:51.596Z,13.70
2023-04-13T10:46:06.064Z,13.70
2023-04-13T10:47:08.320Z,13.70
2023-04-13T10:48:21.897Z,13.70
2023-04-13T10:49:32.929Z,13.80
2023-04-13T10:50:34.363Z,13.90
2023-04-13T10:51:45.508Z,13.90
2023-04-13T10:53:04.917Z,13.80
2023-04-13T10:54:08.217Z,13.40
2023-04-13T10:55:10.835Z,13.20
2023-04-13T10:56:19.292Z,13.10
2023-04-13T10:57:21.025Z,13.20
2023-04-13T10:58:23.219Z,13.10
2023-04-13T10:59:58.682Z,12.80
2023-04-13T11:01:03.185Z,12.90
2023-04-13T11:02:13.153Z,13.00
2023-04-13T11:03:16.925Z,12.60
2023-04-13T11:04:19.272Z,12.50
2023-04-13T11:05:22.303Z,12.50
2023-04-13T11:06:24.301Z,12.50
2023-04-13T11:07:29.442Z,12.60
2023-04-13T11:08:32.737Z,12.70
2023-04-13T11:09:34.306Z,12.90
2023-04-13T11:10:35.708Z,13.00
2023-04-13T11:11:37.837Z,13.10
2023-04-13T11:12:39.584Z,13.20
2023-04-13T11:13:49.011Z,13.30
2023-04-13T11:14:51.178Z,13.40
2023-04-13T11:16:01.745Z,13.60
2023-04-13T11:17:03.309Z,13.80
2023-04-13T11:18:04.989Z,13.90
2023-04-13T11:19:06.773Z,14.10
2023-04-13T11:20:11.212Z,14.30
2023-04-13T11:21:17.090Z,14.40
2023-04-13T11:22:20.179Z,14.60
2023-04-13T11:23:24.013Z,14.60
2023-04-13T11:24:33.917Z,14.70
2023-04-13T11:25:35.401Z,14.70
2023-04-13T11:26:38.545Z,14.60
2023-04-13T11:27:40.844Z,14.60
2023-04-13T11:28:44.107Z,14.60
2023-04-13T11:29:46.021Z,14.40
2023-04-13T11:30:56.033Z,14.30
2023-04-13T11:31:57.611Z,14.20
2023-04-13T11:33:01.120Z,14.20
2023-04-13T11:34:05.461Z,14.10
2023-04-13T11:35:14.846Z,14.10
2023-04-13T11:36:19.903Z,14.10
2023-04-13T11:37:21.985Z,14.10
2023-04-13T11:38:23.626Z,14.10
2023-04-13T11:39:25.315Z,14.10
2023-04-13T11:40:28.312Z,14.10
2023-04-13T11:41:32.760Z,14.10
2023-04-13T11:42:37.803Z,14.10
2023-04-13T11:43:41.910Z,13.70
2023-04-13T11:44:45.615Z,13.60
2023-04-13T11:45:48.044Z,13.40
2023-04-13T11:46:53.221Z,13.20
2023-04-13T11:47:56.593Z,13.20
2023-04-13T11:48:59.471Z,13.40
2023-04-13T11:50:01.930Z,13.30
2023-04-13T11:51:03.671Z,13.10
2023-04-13T11:52:05.555Z,13.10
2023-04-13T11:53:09.658Z,13.20
2023-04-13T11:54:11.365Z,13.30
2023-04-13T11:55:22.517Z,13.40
2023-04-13T11:56:26.073Z,13.40
2023-04-13T11:57:29.066Z,13.30
2023-04-13T11:58:31.552Z,13.20
2023-04-13T11:59:33.412Z,13.30
2023-04-13T12:00:41.058Z,13.30
2023-04-13T12:01:54.359Z,13.40
2023-04-13T12:03:11.796Z,13.30
2023-04-13T12:04:24.814Z,13.20
2023-04-13T12:05:30.346Z,13.00
2023-04-13T12:06:35.136Z,12.70
2023-04-13T12:07:40.861Z,12.20
2023-04-13T12:08:44.082Z,11.90
2023-04-13T12:11:36.745Z,11.20
2023-04-13T12:12:51.537Z,10.80
2023-04-13T12:14:07.175Z,10.30
2023-04-13T12:15:33.995Z,9.60
2023-04-13T12:17:03.148Z,9.00
2023-04-13T12:18:09.096Z,8.50
2023-04-13T12:19:23.384Z,8.20
2023-04-13T12:20:26.680Z,7.90
2023-04-13T12:21:29.081Z,7.70
2023-04-13T12:24:02.022Z,7.50
2023-04-13T12:25:24.390Z,7.50
2023-04-13T12:27:17.169Z,7.50
2023-04-13T12:28:03.663Z,7.50
2023-04-13T12:29:05.958Z,7.50
2023-04-13T12:30:15.275Z,7.50
2023-04-13T12:31:16.838Z,7.50
2023-04-13T12:32:18.562Z,7.60
2023-04-13T12:33:21.323Z,7.50
2023-04-13T12:34:23.540Z,7.80
2023-04-13T12:35:25.366Z,7.80
2023-04-13T12:36:31.465Z,7.70
2023-04-13T12:37:32.945Z,7.80
2023-04-13T12:38:34.682Z,7.80
2023-04-13T12:39:36.317Z,7.80
2023-04-13T12:40:38.259Z,7.90
2023-04-13T12:41:39.951Z,8.00
2023-04-13T12:42:46.266Z,8.00
2023-04-13T12:43:47.627Z,8.10
2023-04-13T12:44:48.992Z,8.10
2023-04-13T12:45:50.769Z,8.20
2023-04-13T12:46:52.252Z,8.30
2023-04-13T12:47:54.453Z,8.30
2023-04-13T12:48:56.277Z,8.40
2023-04-13T12:49:57.823Z,8.50
2023-04-13T12:50:59.249Z,8.70
2023-04-13T12:52:01.026Z,8.70
2023-04-13T12:53:02.431Z,8.80
2023-04-13T12:54:04.081Z,8.90
2023-04-13T12:55:06.629Z,9.00
2023-04-13T12:56:08.441Z,9.10
2023-04-13T12:57:09.912Z,9.10
2023-04-13T12:58:11.644Z,9.30
2023-04-13T12:59:13.146Z,9.40
2023-04-13T13:00:15.895Z,9.40
2023-04-13T13:01:17.332Z,9.40
2023-04-13T13:02:19.209Z,9.50
2023-04-13T13:03:20.891Z,9.40
2023-04-13T13:04:22.356Z,9.40
2023-04-13T13:05:24.608Z,9.50
2023-04-13T13:06:26.281Z,9.50
2023-04-13T13:07:27.642Z,9.50
2023-04-13T13:08:29.036Z,9.40
2023-04-13T13:09:30.902Z,9.50
2023-04-13T13:10:32.595Z,9.50
2023-04-13T13:11:34.047Z,9.60
2023-04-13T13:12:35.445Z,9.70
2023-04-13T13:13:36.906Z,9.70
2023-04-13T13:14:38.531Z,9.70
2023-04-13T13:15:40.626Z,9.70
2023-04-13T13:16:42.607Z,9.80
2023-04-13T13:17:44.257Z,10.00
2023-04-13T13:18:50.942Z,10.20
2023-04-13T13:19:53.080Z,10.40
2023-04-13T13:20:54.565Z,10.40
2023-04-13T13:21:56.032Z,10.50
2023-04-13T13:22:57.913Z,10.60
2023-04-13T13:23:59.657Z,10.70
2023-04-13T13:25:01.855Z,10.70
2023-04-13T13:26:23.149Z,10.90
2023-04-13T13:28:30.838Z,11.10
2023-04-13T13:29:34.465Z,11.30
2023-04-13T13:30:36.763Z,11.40
2023-04-13T13:31:38.286Z,11.50
2023-04-13T13:32:39.940Z,11.60
2023-04-13T13:33:41.579Z,11.70
2023-04-13T13:34:43.038Z,11.90
2023-04-13T13:35:44.415Z,12.10
2023-04-13T13:36:46.691Z,12.20
2023-04-13T13:37:48.122Z,12.40
2023-04-13T13:38:50.021Z,12.50
2023-04-13T13:39:51.726Z,12.60
2023-04-13T13:40:53.318Z,12.60
2023-04-13T13:41:54.785Z,12.70
2023-04-13T13:42:56.801Z,12.80
2023-04-13T13:43:58.468Z,12.70
2023-04-13T13:44:59.885Z,12.80
2023-04-13T13:46:01.371Z,12.80
2023-04-13T13:47:02.902Z,12.80
2023-04-13T13:48:05.158Z,12.90
2023-04-13T13:49:25.417Z,12.90
2023-04-13T13:50:43.392Z,13.00
2023-04-13T13:51:45.165Z,13.00
2023-04-13T13:53:02.537Z,13.10
2023-04-13T13:54:09.462Z,13.20
2023-04-13T13:55:11.000Z,13.10
2023-04-13T13:56:12.416Z,13.00
2023-04-13T13:57:13.965Z,12.90
2023-04-13T13:58:15.538Z,12.90
2023-04-13T13:59:16.943Z,12.90
2023-04-13T14:00:20.033Z,12.90
2023-04-13T14:01:21.765Z,12.90
2023-04-13T14:02:23.471Z,12.90
2023-04-13T14:03:25.183Z,13.00
2023-04-13T14:04:27.171Z,13.10
2023-04-13T14:05:28.674Z,13.20
2023-04-13T14:06:32.565Z,13.20
2023-04-13T14:07:34.124Z,13.30
2023-04-13T14:08:35.946Z,13.40
2023-04-13T14:09:37.627Z,13.40
2023-04-13T14:10:39.477Z,13.40
2023-04-13T14:11:41.172Z,13.30
2023-04-13T14:12:45.150Z,13.30
2023-04-13T14:13:47.248Z,13.30
2023-04-13T14:14:49.012Z,13.10
2023-04-13T14:15:50.634Z,12.80
2023-04-13T14:16:52.281Z,12.50
2023-04-13T14:18:09.022Z,12.50
2023-04-13T14:19:11.624Z,12.60
2023-04-13T14:20:14.289Z,12.50
2023-04-13T14:21:16.056Z,12.50